sensor_id;sensor_type;location;lat;lon;timestamp;P1;durP1;ratioP1;P2;durP2;ratioP2
59189;SDS011;50749;51.636;4.948;2023-10-19T00:00:40;3.13;;;1.90;;
59189;SDS011;50749;51.636;4.948;2023-10-19T00:03:29;4.35;;;2.22;;
59189;SDS011;50749;51.636;4.948;2023-10-19T00:05:55;2.95;;;1.83;;
59189;SDS011;50749;51.636;4.948;2023-10-19T00:08:21;2.78;;;1.85;;
59189;SDS011;50749;51.636;4.948;2023-10-19T00:10:49;3.70;;;2.30;;
59189;SDS011;50749;51.636;4.948;2023-10-19T00:13:26;2.95;;;2.05;;
59189;SDS011;50749;51.636;4.948;2023-10-19T00:15:55;3.03;;;1.60;;
59189;SDS011;50749;51.636;4.948;2023-10-19T00:18:22;3.65;;;2.30;;
59189;SDS011;50749;51.636;4.948;2023-10-19T00:20:50;2.47;;;1.70;;
59189;SDS011;50749;51.636;4.948;2023-10-19T00:23:22;3.38;;;1.88;;
59189;SDS011;50749;51.636;4.948;2023-10-19T00:25:55;2.53;;;1.65;;
59189;SDS011;50749;51.636;4.948;2023-10-19T00:28:21;3.55;;;2.03;;
59189;SDS011;50749;51.636;4.948;2023-10-19T00:30:52;3.05;;;1.90;;
59189;SDS011;50749;51.636;4.948;2023-10-19T00:33:19;3.30;;;1.63;;
59189;SDS011;50749;51.636;4.948;2023-10-19T00:35:47;3.55;;;2.00;;
59189;SDS011;50749;51.636;4.948;2023-10-19T00:38:26;3.17;;;1.58;;
59189;SDS011;50749;51.636;4.948;2023-10-19T00:40:53;1.95;;;1.35;;
59189;SDS011;50749;51.636;4.948;2023-10-19T00:43:30;3.42;;;1.70;;
59189;SDS011;50749;51.636;4.948;2023-10-19T00:46:03;2.55;;;1.50;;
59189;SDS011;50749;51.636;4.948;2023-10-19T00:48:34;3.28;;;1.80;;
59189;SDS011;50749;51.636;4.948;2023-10-19T00:51:00;4.13;;;1.52;;
59189;SDS011;50749;51.636;4.948;2023-10-19T00:53:48;4.88;;;1.95;;
59189;SDS011;50749;51.636;4.948;2023-10-19T00:56:14;4.22;;;1.73;;
59189;SDS011;50749;51.636;4.948;2023-10-19T00:58:43;3.08;;;1.63;;
59189;SDS011;50749;51.636;4.948;2023-10-19T01:01:13;3.88;;;1.98;;
59189;SDS011;50749;51.636;4.948;2023-10-19T01:03:40;2.78;;;1.70;;
59189;SDS011;50749;51.636;4.948;2023-10-19T01:06:10;2.47;;;1.38;;
59189;SDS011;50749;51.636;4.948;2023-10-19T01:08:37;2.35;;;1.45;;
59189;SDS011;50749;51.636;4.948;2023-10-19T01:11:10;2.80;;;1.60;;
59189;SDS011;50749;51.636;4.948;2023-10-19T01:13:40;2.78;;;1.38;;
59189;SDS011;50749;51.636;4.948;2023-10-19T01:16:14;1.92;;;1.20;;
59189;SDS011;50749;51.636;4.948;2023-10-19T01:18:47;2.63;;;1.60;;
59189;SDS011;50749;51.636;4.948;2023-10-19T01:21:13;2.35;;;1.40;;
59189;SDS011;50749;51.636;4.948;2023-10-19T01:23:46;2.17;;;1.25;;
59189;SDS011;50749;51.636;4.948;2023-10-19T01:26:13;2.10;;;1.20;;
59189;SDS011;50749;51.636;4.948;2023-10-19T01:28:46;1.88;;;1.45;;
59189;SDS011;50749;51.636;4.948;2023-10-19T01:31:22;2.80;;;1.40;;
59189;SDS011;50749;51.636;4.948;2023-10-19T01:33:48;1.83;;;1.20;;
59189;SDS011;50749;51.636;4.948;2023-10-19T01:36:15;2.38;;;1.25;;
59189;SDS011;50749;51.636;4.948;2023-10-19T01:38:47;2.13;;;1.27;;
59189;SDS011;50749;51.636;4.948;2023-10-19T01:41:13;3.00;;;1.25;;
59189;SDS011;50749;51.636;4.948;2023-10-19T01:43:40;1.77;;;1.08;;
59189;SDS011;50749;51.636;4.948;2023-10-19T01:46:08;3.15;;;1.40;;
59189;SDS011;50749;51.636;4.948;2023-10-19T01:48:37;3.63;;;1.17;;
59189;SDS011;50749;51.636;4.948;2023-10-19T01:51:06;1.52;;;1.00;;
59189;SDS011;50749;51.636;4.948;2023-10-19T01:53:39;2.20;;;1.23;;
59189;SDS011;50749;51.636;4.948;2023-10-19T01:56:10;3.55;;;1.00;;
59189;SDS011;50749;51.636;4.948;2023-10-19T01:58:38;2.00;;;1.02;;
59189;SDS011;50749;51.636;4.948;2023-10-19T02:01:08;2.85;;;1.40;;
59189;SDS011;50749;51.636;4.948;2023-10-19T02:03:37;2.55;;;1.10;;
59189;SDS011;50749;51.636;4.948;2023-10-19T02:06:14;3.95;;;1.17;;
59189;SDS011;50749;51.636;4.948;2023-10-19T02:08:46;1.35;;;0.70;;
59189;SDS011;50749;51.636;4.948;2023-10-19T02:11:14;1.90;;;1.05;;
59189;SDS011;50749;51.636;4.948;2023-10-19T02:13:46;1.67;;;1.15;;
59189;SDS011;50749;51.636;4.948;2023-10-19T02:16:13;2.22;;;1.10;;
59189;SDS011;50749;51.636;4.948;2023-10-19T02:18:42;2.80;;;1.08;;
59189;SDS011;50749;51.636;4.948;2023-10-19T02:21:09;1.63;;;0.70;;
59189;SDS011;50749;51.636;4.948;2023-10-19T02:23:38;1.70;;;0.90;;
59189;SDS011;50749;51.636;4.948;2023-10-19T02:26:05;2.42;;;1.00;;
59189;SDS011;50749;51.636;4.948;2023-10-19T02:28:31;2.63;;;0.80;;
59189;SDS011;50749;51.636;4.948;2023-10-19T02:30:58;0.98;;;0.80;;
59189;SDS011;50749;51.636;4.948;2023-10-19T02:33:35;3.95;;;0.88;;
59189;SDS011;50749;51.636;4.948;2023-10-19T02:36:01;3.00;;;0.80;;
59189;SDS011;50749;51.636;4.948;2023-10-19T02:38:29;3.13;;;1.00;;
59189;SDS011;50749;51.636;4.948;2023-10-19T02:40:55;2.92;;;1.00;;
59189;SDS011;50749;51.636;4.948;2023-10-19T02:43:21;3.28;;;0.88;;
59189;SDS011;50749;51.636;4.948;2023-10-19T02:45:49;3.03;;;0.90;;
59189;SDS011;50749;51.636;4.948;2023-10-19T02:48:16;1.60;;;0.90;;
59189;SDS011;50749;51.636;4.948;2023-10-19T02:50:42;0.98;;;0.65;;
59189;SDS011;50749;51.636;4.948;2023-10-19T02:53:08;1.23;;;0.68;;
59189;SDS011;50749;51.636;4.948;2023-10-19T02:55:38;1.77;;;0.98;;
59189;SDS011;50749;51.636;4.948;2023-10-19T02:58:06;1.15;;;0.60;;
59189;SDS011;50749;51.636;4.948;2023-10-19T03:00:31;1.38;;;0.63;;
59189;SDS011;50749;51.636;4.948;2023-10-19T03:03:01;2.00;;;0.98;;
59189;SDS011;50749;51.636;4.948;2023-10-19T03:05:30;2.20;;;0.75;;
59189;SDS011;50749;51.636;4.948;2023-10-19T03:07:56;0.80;;;0.68;;
59189;SDS011;50749;51.636;4.948;2023-10-19T03:10:22;1.80;;;0.73;;
59189;SDS011;50749;51.636;4.948;2023-10-19T03:12:52;2.15;;;0.60;;
59189;SDS011;50749;51.636;4.948;2023-10-19T03:15:18;1.80;;;0.65;;
59189;SDS011;50749;51.636;4.948;2023-10-19T03:17:47;2.00;;;0.82;;
59189;SDS011;50749;51.636;4.948;2023-10-19T03:20:14;5.25;;;0.88;;
59189;SDS011;50749;51.636;4.948;2023-10-19T03:22:43;1.67;;;0.55;;
59189;SDS011;50749;51.636;4.948;2023-10-19T03:25:11;1.92;;;0.77;;
59189;SDS011;50749;51.636;4.948;2023-10-19T03:27:57;1.42;;;0.93;;
59189;SDS011;50749;51.636;4.948;2023-10-19T03:30:31;1.95;;;0.73;;
59189;SDS011;50749;51.636;4.948;2023-10-19T03:32:56;2.00;;;0.60;;
59189;SDS011;50749;51.636;4.948;2023-10-19T03:35:25;1.00;;;0.70;;
59189;SDS011;50749;51.636;4.948;2023-10-19T03:37:51;1.83;;;0.90;;
59189;SDS011;50749;51.636;4.948;2023-10-19T03:40:17;0.93;;;0.60;;
59189;SDS011;50749;51.636;4.948;2023-10-19T03:42:52;1.58;;;0.60;;
59189;SDS011;50749;51.636;4.948;2023-10-19T03:45:20;2.15;;;0.70;;
59189;SDS011;50749;51.636;4.948;2023-10-19T03:47:50;1.20;;;0.60;;
59189;SDS011;50749;51.636;4.948;2023-10-19T03:50:19;0.90;;;0.60;;
59189;SDS011;50749;51.636;4.948;2023-10-19T03:52:47;2.83;;;0.65;;
59189;SDS011;50749;51.636;4.948;2023-10-19T03:55:13;1.85;;;0.80;;
59189;SDS011;50749;51.636;4.948;2023-10-19T03:57:44;1.13;;;0.77;;
59189;SDS011;50749;51.636;4.948;2023-10-19T04:00:18;1.05;;;0.60;;
59189;SDS011;50749;51.636;4.948;2023-10-19T04:02:44;0.70;;;0.50;;
59189;SDS011;50749;51.636;4.948;2023-10-19T04:05:10;0.68;;;0.43;;
59189;SDS011;50749;51.636;4.948;2023-10-19T04:07:40;1.27;;;0.70;;
59189;SDS011;50749;51.636;4.948;2023-10-19T04:10:07;1.05;;;0.70;;
59189;SDS011;50749;51.636;4.948;2023-10-19T04:12:34;1.38;;;0.60;;
59189;SDS011;50749;51.636;4.948;2023-10-19T04:15:01;4.15;;;1.00;;
59189;SDS011;50749;51.636;4.948;2023-10-19T04:17:39;2.05;;;0.80;;
59189;SDS011;50749;51.636;4.948;2023-10-19T04:20:06;5.45;;;1.02;;
59189;SDS011;50749;51.636;4.948;2023-10-19T04:22:55;4.18;;;0.80;;
59189;SDS011;50749;51.636;4.948;2023-10-19T04:25:31;3.38;;;0.88;;
59189;SDS011;50749;51.636;4.948;2023-10-19T04:27:57;2.30;;;0.68;;
59189;SDS011;50749;51.636;4.948;2023-10-19T04:30:22;1.40;;;0.70;;
59189;SDS011;50749;51.636;4.948;2023-10-19T04:32:48;1.58;;;1.02;;
59189;SDS011;50749;51.636;4.948;2023-10-19T04:35:16;3.58;;;0.70;;
59189;SDS011;50749;51.636;4.948;2023-10-19T04:37:51;11.15;;;1.33;;
59189;SDS011;50749;51.636;4.948;2023-10-19T04:40:18;1.52;;;1.00;;
59189;SDS011;50749;51.636;4.948;2023-10-19T04:42:45;1.20;;;0.70;;
59189;SDS011;50749;51.636;4.948;2023-10-19T04:45:11;3.20;;;1.35;;
59189;SDS011;50749;51.636;4.948;2023-10-19T04:47:38;1.65;;;0.90;;
59189;SDS011;50749;51.636;4.948;2023-10-19T04:50:04;2.63;;;1.02;;
59189;SDS011;50749;51.636;4.948;2023-10-19T04:52:32;2.63;;;0.88;;
59189;SDS011;50749;51.636;4.948;2023-10-19T04:54:58;1.02;;;0.80;;
59189;SDS011;50749;51.636;4.948;2023-10-19T04:57:25;3.25;;;0.90;;
59189;SDS011;50749;51.636;4.948;2023-10-19T04:59:51;1.63;;;0.70;;
59189;SDS011;50749;51.636;4.948;2023-10-19T05:02:17;1.92;;;0.80;;
59189;SDS011;50749;51.636;4.948;2023-10-19T05:04:44;1.10;;;0.70;;
59189;SDS011;50749;51.636;4.948;2023-10-19T05:07:15;1.33;;;0.60;;
59189;SDS011;50749;51.636;4.948;2023-10-19T05:09:44;1.40;;;0.80;;
59189;SDS011;50749;51.636;4.948;2023-10-19T05:12:10;1.08;;;0.60;;
59189;SDS011;50749;51.636;4.948;2023-10-19T05:14:37;0.70;;;0.55;;
59189;SDS011;50749;51.636;4.948;2023-10-19T05:17:03;6.32;;;0.90;;
59189;SDS011;50749;51.636;4.948;2023-10-19T05:19:35;5.53;;;0.80;;
59189;SDS011;50749;51.636;4.948;2023-10-19T05:22:02;1.10;;;0.70;;
59189;SDS011;50749;51.636;4.948;2023-10-19T05:24:28;1.40;;;0.70;;
59189;SDS011;50749;51.636;4.948;2023-10-19T05:26:55;2.22;;;0.70;;
59189;SDS011;50749;51.636;4.948;2023-10-19T05:29:21;1.60;;;0.80;;
59189;SDS011;50749;51.636;4.948;2023-10-19T05:31:47;1.15;;;0.70;;
59189;SDS011;50749;51.636;4.948;2023-10-19T05:34:21;2.00;;;0.65;;
59189;SDS011;50749;51.636;4.948;2023-10-19T05:36:48;2.05;;;0.70;;
59189;SDS011;50749;51.636;4.948;2023-10-19T05:39:17;7.10;;;0.98;;
59189;SDS011;50749;51.636;4.948;2023-10-19T05:41:43;1.63;;;0.70;;
59189;SDS011;50749;51.636;4.948;2023-10-19T05:44:09;2.20;;;0.88;;
59189;SDS011;50749;51.636;4.948;2023-10-19T05:46:35;2.00;;;0.65;;
59189;SDS011;50749;51.636;4.948;2023-10-19T05:49:02;0.90;;;0.50;;
59189;SDS011;50749;51.636;4.948;2023-10-19T05:51:32;1.55;;;0.60;;
59189;SDS011;50749;51.636;4.948;2023-10-19T05:53:58;1.30;;;0.52;;
59189;SDS011;50749;51.636;4.948;2023-10-19T05:56:27;1.42;;;0.63;;
59189;SDS011;50749;51.636;4.948;2023-10-19T05:58:53;1.80;;;0.65;;
59189;SDS011;50749;51.636;4.948;2023-10-19T06:01:19;2.60;;;0.57;;
59189;SDS011;50749;51.636;4.948;2023-10-19T06:03:47;1.58;;;0.80;;
59189;SDS011;50749;51.636;4.948;2023-10-19T06:06:13;2.13;;;0.65;;
59189;SDS011;50749;51.636;4.948;2023-10-19T06:08:42;0.95;;;0.70;;
59189;SDS011;50749;51.636;4.948;2023-10-19T06:11:08;1.65;;;0.70;;
59189;SDS011;50749;51.636;4.948;2023-10-19T06:13:33;1.55;;;0.93;;
59189;SDS011;50749;51.636;4.948;2023-10-19T06:15:59;1.55;;;0.63;;
59189;SDS011;50749;51.636;4.948;2023-10-19T06:18:25;2.38;;;0.88;;
59189;SDS011;50749;51.636;4.948;2023-10-19T06:20:51;3.95;;;1.13;;
59189;SDS011;50749;51.636;4.948;2023-10-19T06:23:17;2.45;;;0.90;;
59189;SDS011;50749;51.636;4.948;2023-10-19T06:25:43;4.65;;;0.95;;
59189;SDS011;50749;51.636;4.948;2023-10-19T06:28:09;1.52;;;0.80;;
59189;SDS011;50749;51.636;4.948;2023-10-19T06:30:37;7.30;;;1.40;;
59189;SDS011;50749;51.636;4.948;2023-10-19T06:33:03;4.28;;;0.85;;
59189;SDS011;50749;51.636;4.948;2023-10-19T06:35:29;4.13;;;0.80;;
59189;SDS011;50749;51.636;4.948;2023-10-19T06:37:59;1.67;;;0.63;;
59189;SDS011;50749;51.636;4.948;2023-10-19T06:40:26;4.70;;;0.93;;
59189;SDS011;50749;51.636;4.948;2023-10-19T06:42:56;1.55;;;0.80;;
59189;SDS011;50749;51.636;4.948;2023-10-19T06:45:22;1.08;;;0.68;;
59189;SDS011;50749;51.636;4.948;2023-10-19T06:47:49;3.95;;;0.90;;
59189;SDS011;50749;51.636;4.948;2023-10-19T06:50:16;1.50;;;0.65;;
59189;SDS011;50749;51.636;4.948;2023-10-19T06:52:46;1.30;;;0.90;;
59189;SDS011;50749;51.636;4.948;2023-10-19T06:55:16;1.70;;;0.73;;
59189;SDS011;50749;51.636;4.948;2023-10-19T06:57:47;2.28;;;1.02;;
59189;SDS011;50749;51.636;4.948;2023-10-19T07:00:15;2.15;;;0.73;;
59189;SDS011;50749;51.636;4.948;2023-10-19T07:02:46;1.73;;;0.73;;
59189;SDS011;50749;51.636;4.948;2023-10-19T07:05:13;4.13;;;0.70;;
59189;SDS011;50749;51.636;4.948;2023-10-19T07:07:40;2.63;;;0.80;;
59189;SDS011;50749;51.636;4.948;2023-10-19T07:10:10;0.73;;;0.50;;
59189;SDS011;50749;51.636;4.948;2023-10-19T07:12:40;3.88;;;0.80;;
59189;SDS011;50749;51.636;4.948;2023-10-19T07:15:09;2.83;;;0.73;;
59189;SDS011;50749;51.636;4.948;2023-10-19T07:17:44;2.10;;;0.77;;
59189;SDS011;50749;51.636;4.948;2023-10-19T07:20:13;1.98;;;0.60;;
59189;SDS011;50749;51.636;4.948;2023-10-19T07:22:58;2.13;;;0.60;;
59189;SDS011;50749;51.636;4.948;2023-10-19T07:25:43;3.40;;;1.15;;
59189;SDS011;50749;51.636;4.948;2023-10-19T07:28:09;2.50;;;0.85;;
59189;SDS011;50749;51.636;4.948;2023-10-19T07:30:38;3.10;;;0.80;;
59189;SDS011;50749;51.636;4.948;2023-10-19T07:33:05;2.67;;;0.85;;
59189;SDS011;50749;51.636;4.948;2023-10-19T07:35:34;3.00;;;0.70;;
59189;SDS011;50749;51.636;4.948;2023-10-19T07:38:02;2.38;;;0.68;;
59189;SDS011;50749;51.636;4.948;2023-10-19T07:40:29;3.05;;;0.70;;
59189;SDS011;50749;51.636;4.948;2023-10-19T07:42:55;4.85;;;1.00;;
59189;SDS011;50749;51.636;4.948;2023-10-19T07:45:21;2.03;;;0.80;;
59189;SDS011;50749;51.636;4.948;2023-10-19T07:47:48;2.10;;;0.60;;
59189;SDS011;50749;51.636;4.948;2023-10-19T07:50:14;2.42;;;0.80;;
59189;SDS011;50749;51.636;4.948;2023-10-19T07:55:09;2.22;;;0.70;;
59189;SDS011;50749;51.636;4.948;2023-10-19T07:57:35;2.42;;;0.90;;
59189;SDS011;50749;51.636;4.948;2023-10-19T08:00:02;1.25;;;0.70;;
59189;SDS011;50749;51.636;4.948;2023-10-19T08:02:29;1.17;;;0.60;;
59189;SDS011;50749;51.636;4.948;2023-10-19T08:04:55;1.88;;;0.98;;
59189;SDS011;50749;51.636;4.948;2023-10-19T08:07:22;2.88;;;0.50;;
59189;SDS011;50749;51.636;4.948;2023-10-19T08:09:47;2.08;;;0.63;;
59189;SDS011;50749;51.636;4.948;2023-10-19T08:12:13;1.13;;;0.45;;
59189;SDS011;50749;51.636;4.948;2023-10-19T08:14:39;0.88;;;0.60;;
59189;SDS011;50749;51.636;4.948;2023-10-19T08:17:05;1.40;;;0.50;;
59189;SDS011;50749;51.636;4.948;2023-10-19T08:19:34;2.63;;;0.90;;
59189;SDS011;50749;51.636;4.948;2023-10-19T08:22:01;2.38;;;0.88;;
59189;SDS011;50749;51.636;4.948;2023-10-19T08:24:27;1.88;;;0.60;;
59189;SDS011;50749;51.636;4.948;2023-10-19T08:26:55;2.78;;;0.88;;
59189;SDS011;50749;51.636;4.948;2023-10-19T08:29:21;0.60;;;0.40;;
59189;SDS011;50749;51.636;4.948;2023-10-19T08:31:49;1.00;;;0.60;;
59189;SDS011;50749;51.636;4.948;2023-10-19T08:34:15;1.00;;;0.73;;
59189;SDS011;50749;51.636;4.948;2023-10-19T08:36:41;2.65;;;0.80;;
59189;SDS011;50749;51.636;4.948;2023-10-19T08:39:08;0.98;;;0.50;;
59189;SDS011;50749;51.636;4.948;2023-10-19T08:41:37;2.33;;;0.93;;
59189;SDS011;50749;51.636;4.948;2023-10-19T08:44:05;0.82;;;0.47;;
59189;SDS011;50749;51.636;4.948;2023-10-19T08:46:41;3.53;;;0.80;;
59189;SDS011;50749;51.636;4.948;2023-10-19T08:49:15;1.60;;;0.50;;
59189;SDS011;50749;51.636;4.948;2023-10-19T08:51:43;2.45;;;0.60;;
59189;SDS011;50749;51.636;4.948;2023-10-19T08:54:10;3.72;;;0.65;;
59189;SDS011;50749;51.636;4.948;2023-10-19T08:56:37;0.90;;;0.40;;
59189;SDS011;50749;51.636;4.948;2023-10-19T08:59:04;0.55;;;0.40;;
59189;SDS011;50749;51.636;4.948;2023-10-19T09:01:31;1.38;;;0.50;;
59189;SDS011;50749;51.636;4.948;2023-10-19T09:03:58;0.88;;;0.65;;
59189;SDS011;50749;51.636;4.948;2023-10-19T09:06:24;1.92;;;0.88;;
59189;SDS011;50749;51.636;4.948;2023-10-19T09:08:50;2.50;;;0.60;;
59189;SDS011;50749;51.636;4.948;2023-10-19T09:11:16;0.80;;;0.50;;
59189;SDS011;50749;51.636;4.948;2023-10-19T09:13:52;3.38;;;0.68;;
59189;SDS011;50749;51.636;4.948;2023-10-19T09:16:19;1.42;;;0.63;;
59189;SDS011;50749;51.636;4.948;2023-10-19T09:18:46;1.50;;;0.63;;
59189;SDS011;50749;51.636;4.948;2023-10-19T09:21:16;1.15;;;0.70;;
59189;SDS011;50749;51.636;4.948;2023-10-19T09:23:52;1.02;;;0.60;;
59189;SDS011;50749;51.636;4.948;2023-10-19T09:26:20;2.83;;;0.70;;
59189;SDS011;50749;51.636;4.948;2023-10-19T09:28:47;0.90;;;0.60;;
59189;SDS011;50749;51.636;4.948;2023-10-19T09:31:14;0.43;;;0.30;;
59189;SDS011;50749;51.636;4.948;2023-10-19T09:33:42;4.00;;;0.50;;
59189;SDS011;50749;51.636;4.948;2023-10-19T09:36:12;1.17;;;0.55;;
59189;SDS011;50749;51.636;4.948;2023-10-19T09:38:45;0.60;;;0.47;;
59189;SDS011;50749;51.636;4.948;2023-10-19T09:41:19;2.35;;;0.73;;
59189;SDS011;50749;51.636;4.948;2023-10-19T09:43:47;1.42;;;0.52;;
59189;SDS011;50749;51.636;4.948;2023-10-19T09:46:27;0.60;;;0.40;;
59189;SDS011;50749;51.636;4.948;2023-10-19T09:48:56;1.65;;;0.55;;
59189;SDS011;50749;51.636;4.948;2023-10-19T09:51:23;1.48;;;0.60;;
59189;SDS011;50749;51.636;4.948;2023-10-19T09:53:54;1.70;;;0.80;;
59189;SDS011;50749;51.636;4.948;2023-10-19T09:56:43;1.45;;;0.57;;
59189;SDS011;50749;51.636;4.948;2023-10-19T09:59:27;0.88;;;0.50;;
59189;SDS011;50749;51.636;4.948;2023-10-19T10:04:39;0.95;;;0.45;;
59189;SDS011;50749;51.636;4.948;2023-10-19T10:07:06;1.30;;;0.50;;
59189;SDS011;50749;51.636;4.948;2023-10-19T10:09:38;0.70;;;0.40;;
59189;SDS011;50749;51.636;4.948;2023-10-19T10:12:18;1.17;;;0.52;;
59189;SDS011;50749;51.636;4.948;2023-10-19T10:14:52;0.40;;;0.40;;
59189;SDS011;50749;51.636;4.948;2023-10-19T10:17:22;0.55;;;0.40;;
59189;SDS011;50749;51.636;4.948;2023-10-19T10:19:49;1.42;;;0.57;;
59189;SDS011;50749;51.636;4.948;2023-10-19T10:22:17;0.50;;;0.50;;
59189;SDS011;50749;51.636;4.948;2023-10-19T10:24:46;0.90;;;0.40;;
59189;SDS011;50749;51.636;4.948;2023-10-19T10:27:17;1.17;;;0.55;;
59189;SDS011;50749;51.636;4.948;2023-10-19T10:29:53;1.95;;;0.82;;
59189;SDS011;50749;51.636;4.948;2023-10-19T10:38:04;1.95;;;0.47;;
59189;SDS011;50749;51.636;4.948;2023-10-19T10:40:31;1.70;;;0.45;;
59189;SDS011;50749;51.636;4.948;2023-10-19T10:43:07;1.75;;;0.47;;
59189;SDS011;50749;51.636;4.948;2023-10-19T10:45:33;1.73;;;0.40;;
59189;SDS011;50749;51.636;4.948;2023-10-19T10:47:59;1.67;;;0.43;;
59189;SDS011;50749;51.636;4.948;2023-10-19T10:50:26;0.32;;;0.32;;
59189;SDS011;50749;51.636;4.948;2023-10-19T10:52:53;2.00;;;0.50;;
59189;SDS011;50749;51.636;4.948;2023-10-19T10:55:23;0.90;;;0.60;;
59189;SDS011;50749;51.636;4.948;2023-10-19T10:57:52;1.20;;;0.60;;
59189;SDS011;50749;51.636;4.948;2023-10-19T11:00:19;1.73;;;0.50;;
59189;SDS011;50749;51.636;4.948;2023-10-19T11:02:46;2.05;;;0.55;;
59189;SDS011;50749;51.636;4.948;2023-10-19T11:05:16;1.08;;;0.50;;
59189;SDS011;50749;51.636;4.948;2023-10-19T11:08:05;1.92;;;0.52;;
59189;SDS011;50749;51.636;4.948;2023-10-19T11:10:38;2.33;;;0.47;;
59189;SDS011;50749;51.636;4.948;2023-10-19T11:13:11;1.75;;;0.43;;
59189;SDS011;50749;51.636;4.948;2023-10-19T11:15:46;0.80;;;0.45;;
59189;SDS011;50749;51.636;4.948;2023-10-19T11:18:27;2.30;;;0.45;;
59189;SDS011;50749;51.636;4.948;2023-10-19T11:21:11;1.83;;;0.57;;
59189;SDS011;50749;51.636;4.948;2023-10-19T11:23:47;2.35;;;0.60;;
59189;SDS011;50749;51.636;4.948;2023-10-19T11:26:16;2.57;;;0.60;;
59189;SDS011;50749;51.636;4.948;2023-10-19T11:28:43;3.08;;;0.60;;
59189;SDS011;50749;51.636;4.948;2023-10-19T11:31:22;2.60;;;0.50;;
59189;SDS011;50749;51.636;4.948;2023-10-19T11:33:50;4.50;;;0.55;;
59189;SDS011;50749;51.636;4.948;2023-10-19T11:36:17;1.08;;;0.50;;
59189;SDS011;50749;51.636;4.948;2023-10-19T11:38:45;4.47;;;0.45;;
59189;SDS011;50749;51.636;4.948;2023-10-19T11:41:12;0.90;;;0.57;;
59189;SDS011;50749;51.636;4.948;2023-10-19T11:43:43;1.50;;;0.50;;
59189;SDS011;50749;51.636;4.948;2023-10-19T11:46:10;1.80;;;0.50;;
59189;SDS011;50749;51.636;4.948;2023-10-19T11:48:37;0.50;;;0.30;;
59189;SDS011;50749;51.636;4.948;2023-10-19T11:51:05;1.20;;;0.55;;
59189;SDS011;50749;51.636;4.948;2023-10-19T11:53:32;0.95;;;0.30;;
59189;SDS011;50749;51.636;4.948;2023-10-19T11:56:00;1.55;;;0.45;;
59189;SDS011;50749;51.636;4.948;2023-10-19T11:58:27;3.58;;;0.40;;
59189;SDS011;50749;51.636;4.948;2023-10-19T12:00:53;2.60;;;0.55;;
59189;SDS011;50749;51.636;4.948;2023-10-19T12:03:20;1.60;;;0.73;;
59189;SDS011;50749;51.636;4.948;2023-10-19T12:05:46;0.73;;;0.40;;
59189;SDS011;50749;51.636;4.948;2023-10-19T12:08:12;2.17;;;0.52;;
59189;SDS011;50749;51.636;4.948;2023-10-19T12:10:39;2.28;;;0.60;;
59189;SDS011;50749;51.636;4.948;2023-10-19T12:13:04;1.70;;;0.73;;
59189;SDS011;50749;51.636;4.948;2023-10-19T12:15:34;2.05;;;0.70;;
59189;SDS011;50749;51.636;4.948;2023-10-19T12:18:00;0.88;;;0.30;;
59189;SDS011;50749;51.636;4.948;2023-10-19T12:20:27;1.08;;;0.63;;
59189;SDS011;50749;51.636;4.948;2023-10-19T12:22:59;0.98;;;0.50;;
59189;SDS011;50749;51.636;4.948;2023-10-19T12:25:26;1.98;;;0.60;;
59189;SDS011;50749;51.636;4.948;2023-10-19T12:27:55;1.05;;;0.47;;
59189;SDS011;50749;51.636;4.948;2023-10-19T12:30:23;3.40;;;0.85;;
59189;SDS011;50749;51.636;4.948;2023-10-19T12:32:52;1.63;;;0.50;;
59189;SDS011;50749;51.636;4.948;2023-10-19T12:35:17;4.13;;;0.70;;
59189;SDS011;50749;51.636;4.948;2023-10-19T12:37:55;1.30;;;0.40;;
59189;SDS011;50749;51.636;4.948;2023-10-19T12:40:21;1.20;;;0.30;;
59189;SDS011;50749;51.636;4.948;2023-10-19T12:42:54;0.98;;;0.57;;
59189;SDS011;50749;51.636;4.948;2023-10-19T12:45:21;2.45;;;0.55;;
59189;SDS011;50749;51.636;4.948;2023-10-19T12:47:47;0.90;;;0.50;;
59189;SDS011;50749;51.636;4.948;2023-10-19T12:50:14;0.73;;;0.40;;
59189;SDS011;50749;51.636;4.948;2023-10-19T12:52:41;2.25;;;0.50;;
59189;SDS011;50749;51.636;4.948;2023-10-19T12:55:06;1.75;;;0.40;;
59189;SDS011;50749;51.636;4.948;2023-10-19T12:57:34;3.35;;;0.70;;
59189;SDS011;50749;51.636;4.948;2023-10-19T13:00:00;1.23;;;0.60;;
59189;SDS011;50749;51.636;4.948;2023-10-19T13:02:49;2.45;;;0.73;;
59189;SDS011;50749;51.636;4.948;2023-10-19T13:05:16;5.43;;;0.60;;
59189;SDS011;50749;51.636;4.948;2023-10-19T13:07:44;0.57;;;0.30;;
59189;SDS011;50749;51.636;4.948;2023-10-19T13:10:10;1.85;;;0.70;;
59189;SDS011;50749;51.636;4.948;2023-10-19T13:12:39;1.52;;;0.60;;
59189;SDS011;50749;51.636;4.948;2023-10-19T13:15:05;2.72;;;0.68;;
59189;SDS011;50749;51.636;4.948;2023-10-19T13:17:39;2.90;;;0.60;;
59189;SDS011;50749;51.636;4.948;2023-10-19T13:20:05;1.10;;;0.50;;
59189;SDS011;50749;51.636;4.948;2023-10-19T13:22:41;1.08;;;0.60;;
59189;SDS011;50749;51.636;4.948;2023-10-19T13:25:07;1.45;;;0.50;;
59189;SDS011;50749;51.636;4.948;2023-10-19T13:27:45;3.13;;;0.60;;
59189;SDS011;50749;51.636;4.948;2023-10-19T13:30:11;2.13;;;0.40;;
59189;SDS011;50749;51.636;4.948;2023-10-19T13:32:37;1.35;;;0.50;;
59189;SDS011;50749;51.636;4.948;2023-10-19T13:35:06;2.40;;;0.50;;
59189;SDS011;50749;51.636;4.948;2023-10-19T13:37:32;0.57;;;0.50;;
59189;SDS011;50749;51.636;4.948;2023-10-19T13:39:58;0.68;;;0.45;;
59189;SDS011;50749;51.636;4.948;2023-10-19T13:42:24;1.17;;;0.50;;
59189;SDS011;50749;51.636;4.948;2023-10-19T13:44:50;1.02;;;0.52;;
59189;SDS011;50749;51.636;4.948;2023-10-19T13:47:16;2.67;;;0.50;;
59189;SDS011;50749;51.636;4.948;2023-10-19T13:49:42;1.88;;;0.65;;
59189;SDS011;50749;51.636;4.948;2023-10-19T13:52:07;2.13;;;0.50;;
59189;SDS011;50749;51.636;4.948;2023-10-19T13:54:36;2.03;;;0.70;;
59189;SDS011;50749;51.636;4.948;2023-10-19T13:57:02;4.05;;;0.70;;
59189;SDS011;50749;51.636;4.948;2023-10-19T13:59:29;0.95;;;0.50;;
59189;SDS011;50749;51.636;4.948;2023-10-19T14:01:55;1.13;;;0.55;;
59189;SDS011;50749;51.636;4.948;2023-10-19T14:04:21;1.75;;;0.77;;
59189;SDS011;50749;51.636;4.948;2023-10-19T14:06:47;3.45;;;0.90;;
59189;SDS011;50749;51.636;4.948;2023-10-19T14:09:15;5.22;;;1.67;;
59189;SDS011;50749;51.636;4.948;2023-10-19T14:11:43;3.33;;;0.80;;
59189;SDS011;50749;51.636;4.948;2023-10-19T14:14:10;6.43;;;0.70;;
59189;SDS011;50749;51.636;4.948;2023-10-19T14:16:36;1.92;;;0.68;;
59189;SDS011;50749;51.636;4.948;2023-10-19T14:19:02;1.02;;;0.60;;
59189;SDS011;50749;51.636;4.948;2023-10-19T14:21:29;1.70;;;0.57;;
59189;SDS011;50749;51.636;4.948;2023-10-19T14:23:55;2.50;;;0.77;;
59189;SDS011;50749;51.636;4.948;2023-10-19T14:26:21;2.85;;;1.30;;
59189;SDS011;50749;51.636;4.948;2023-10-19T14:28:46;4.80;;;0.73;;
59189;SDS011;50749;51.636;4.948;2023-10-19T14:31:13;1.85;;;0.75;;
59189;SDS011;50749;51.636;4.948;2023-10-19T14:33:39;1.75;;;0.50;;
59189;SDS011;50749;51.636;4.948;2023-10-19T14:36:05;3.10;;;0.63;;
59189;SDS011;50749;51.636;4.948;2023-10-19T14:38:31;3.08;;;0.68;;
59189;SDS011;50749;51.636;4.948;2023-10-19T14:40:58;2.28;;;0.40;;
59189;SDS011;50749;51.636;4.948;2023-10-19T14:43:23;4.82;;;0.70;;
59189;SDS011;50749;51.636;4.948;2023-10-19T14:45:51;1.02;;;0.50;;
59189;SDS011;50749;51.636;4.948;2023-10-19T14:48:16;1.98;;;0.73;;
59189;SDS011;50749;51.636;4.948;2023-10-19T14:50:44;2.75;;;0.93;;
59189;SDS011;50749;51.636;4.948;2023-10-19T14:53:10;2.72;;;0.57;;
59189;SDS011;50749;51.636;4.948;2023-10-19T14:55:37;1.98;;;0.50;;
59189;SDS011;50749;51.636;4.948;2023-10-19T14:58:03;3.45;;;0.73;;
59189;SDS011;50749;51.636;4.948;2023-10-19T15:00:31;4.35;;;0.55;;
59189;SDS011;50749;51.636;4.948;2023-10-19T15:03:02;0.75;;;0.52;;
59189;SDS011;50749;51.636;4.948;2023-10-19T15:05:35;1.15;;;0.60;;
59189;SDS011;50749;51.636;4.948;2023-10-19T15:08:05;1.17;;;0.73;;